sensor_id;sensor_type;location;lat;lon;timestamp;P1;durP1;ratioP1;P2;durP2;ratioP2
6725;SDS011;3400;48.506;11.692;2023-06-26T00:02:06;5.23;;;4.73;;
6725;SDS011;3400;48.506;11.692;2023-06-26T00:04:34;5.70;;;5.20;;
6725;SDS011;3400;48.506;11.692;2023-06-26T00:07:03;4.93;;;4.43;;
6725;SDS011;3400;48.506;11.692;2023-06-26T00:09:31;4.90;;;4.50;;
6725;SDS011;3400;48.506;11.692;2023-06-26T00:11:58;5.77;;;5.27;;
6725;SDS011;3400;48.506;11.692;2023-06-26T00:14:26;5.37;;;4.87;;
6725;SDS011;3400;48.506;11.692;2023-06-26T00:16:54;5.23;;;4.67;;
6725;SDS011;3400;48.506;11.692;2023-06-26T00:19:23;4.90;;;4.50;;
6725;SDS011;3400;48.506;11.692;2023-06-26T00:21:51;6.67;;;5.37;;
6725;SDS011;3400;48.506;11.692;2023-06-26T00:24:18;5.37;;;4.87;;
6725;SDS011;3400;48.506;11.692;2023-06-26T00:26:46;5.53;;;4.70;;
6725;SDS011;3400;48.506;11.692;2023-06-26T00:29:15;4.97;;;4.57;;
6725;SDS011;3400;48.506;11.692;2023-06-26T00:31:43;5.17;;;4.67;;
6725;SDS011;3400;48.506;11.692;2023-06-26T00:34:10;6.10;;;5.40;;
6725;SDS011;3400;48.506;11.692;2023-06-26T00:36:39;6.00;;;5.40;;
6725;SDS011;3400;48.506;11.692;2023-06-26T00:39:09;5.43;;;4.90;;
6725;SDS011;3400;48.506;11.692;2023-06-26T00:41:36;5.73;;;5.13;;
6725;SDS011;3400;48.506;11.692;2023-06-26T00:44:04;5.30;;;4.80;;
6725;SDS011;3400;48.506;11.692;2023-06-26T00:46:32;5.67;;;5.07;;
6725;SDS011;3400;48.506;11.692;2023-06-26T00:49:00;5.27;;;4.67;;
6725;SDS011;3400;48.506;11.692;2023-06-26T00:51:29;6.37;;;5.10;;
6725;SDS011;3400;48.506;11.692;2023-06-26T00:53:59;5.90;;;4.80;;
6725;SDS011;3400;48.506;11.692;2023-06-26T00:56:27;5.43;;;4.93;;
6725;SDS011;3400;48.506;11.692;2023-06-26T00:58:56;5.67;;;4.73;;
6725;SDS011;3400;48.506;11.692;2023-06-26T01:01:26;5.67;;;5.17;;
6725;SDS011;3400;48.506;11.692;2023-06-26T01:03:53;5.70;;;5.20;;
6725;SDS011;3400;48.506;11.692;2023-06-26T01:06:24;5.97;;;5.37;;
6725;SDS011;3400;48.506;11.692;2023-06-26T01:08:55;5.10;;;4.70;;
6725;SDS011;3400;48.506;11.692;2023-06-26T01:11:24;5.83;;;5.30;;
6725;SDS011;3400;48.506;11.692;2023-06-26T01:13:52;6.60;;;5.67;;
6725;SDS011;3400;48.506;11.692;2023-06-26T01:16:21;6.10;;;5.20;;
6725;SDS011;3400;48.506;11.692;2023-06-26T01:18:49;6.40;;;5.67;;
6725;SDS011;3400;48.506;11.692;2023-06-26T01:21:17;6.43;;;5.53;;
6725;SDS011;3400;48.506;11.692;2023-06-26T01:23:49;5.67;;;5.17;;
6725;SDS011;3400;48.506;11.692;2023-06-26T01:26:22;6.00;;;5.40;;
6725;SDS011;3400;48.506;11.692;2023-06-26T01:28:50;5.90;;;4.80;;
6725;SDS011;3400;48.506;11.692;2023-06-26T01:31:19;5.70;;;5.20;;
6725;SDS011;3400;48.506;11.692;2023-06-26T01:33:47;6.67;;;5.80;;
6725;SDS011;3400;48.506;11.692;2023-06-26T01:36:14;6.00;;;5.07;;
6725;SDS011;3400;48.506;11.692;2023-06-26T01:38:42;7.37;;;6.33;;
6725;SDS011;3400;48.506;11.692;2023-06-26T01:41:10;7.30;;;6.07;;
6725;SDS011;3400;48.506;11.692;2023-06-26T01:43:41;9.17;;;5.80;;
6725;SDS011;3400;48.506;11.692;2023-06-26T01:46:11;7.03;;;5.67;;
6725;SDS011;3400;48.506;11.692;2023-06-26T01:48:44;5.67;;;5.17;;
6725;SDS011;3400;48.506;11.692;2023-06-26T01:51:14;7.20;;;5.60;;
6725;SDS011;3400;48.506;11.692;2023-06-26T01:53:46;7.10;;;5.50;;
6725;SDS011;3400;48.506;11.692;2023-06-26T01:56:16;7.27;;;5.33;;
6725;SDS011;3400;48.506;11.692;2023-06-26T01:58:47;5.97;;;5.47;;
6725;SDS011;3400;48.506;11.692;2023-06-26T02:01:15;5.90;;;5.30;;
6725;SDS011;3400;48.506;11.692;2023-06-26T02:03:43;5.67;;;5.17;;
6725;SDS011;3400;48.506;11.692;2023-06-26T02:06:10;7.93;;;5.07;;
6725;SDS011;3400;48.506;11.692;2023-06-26T02:08:38;6.80;;;6.10;;
6725;SDS011;3400;48.506;11.692;2023-06-26T02:11:06;10.00;;;5.57;;
6725;SDS011;3400;48.506;11.692;2023-06-26T02:13:34;6.03;;;5.43;;
6725;SDS011;3400;48.506;11.692;2023-06-26T02:16:03;6.43;;;5.83;;
6725;SDS011;3400;48.506;11.692;2023-06-26T02:18:31;6.97;;;5.90;;
6725;SDS011;3400;48.506;11.692;2023-06-26T02:20:58;6.77;;;6.17;;
6725;SDS011;3400;48.506;11.692;2023-06-26T02:23:27;8.43;;;6.00;;
6725;SDS011;3400;48.506;11.692;2023-06-26T02:25:56;6.93;;;6.10;;
6725;SDS011;3400;48.506;11.692;2023-06-26T02:28:24;6.20;;;5.30;;
6725;SDS011;3400;48.506;11.692;2023-06-26T02:30:52;7.17;;;6.50;;
6725;SDS011;3400;48.506;11.692;2023-06-26T02:33:21;7.80;;;6.47;;
6725;SDS011;3400;48.506;11.692;2023-06-26T02:35:49;7.00;;;6.30;;
6725;SDS011;3400;48.506;11.692;2023-06-26T02:38:17;6.13;;;5.53;;
6725;SDS011;3400;48.506;11.692;2023-06-26T02:40:46;6.97;;;5.83;;
6725;SDS011;3400;48.506;11.692;2023-06-26T02:43:15;7.40;;;5.97;;
6725;SDS011;3400;48.506;11.692;2023-06-26T02:45:43;6.50;;;5.60;;
6725;SDS011;3400;48.506;11.692;2023-06-26T02:48:11;7.40;;;6.47;;
6725;SDS011;3400;48.506;11.692;2023-06-26T02:50:41;6.73;;;5.97;;
6725;SDS011;3400;48.506;11.692;2023-06-26T02:53:13;7.53;;;6.50;;
6725;SDS011;3400;48.506;11.692;2023-06-26T02:55:44;7.30;;;6.50;;
6725;SDS011;3400;48.506;11.692;2023-06-26T02:58:13;7.37;;;6.67;;
6725;SDS011;3400;48.506;11.692;2023-06-26T03:00:41;7.30;;;6.60;;
6725;SDS011;3400;48.506;11.692;2023-06-26T03:03:14;6.77;;;6.07;;
6725;SDS011;3400;48.506;11.692;2023-06-26T03:05:43;6.57;;;5.97;;
6725;SDS011;3400;48.506;11.692;2023-06-26T03:08:10;7.03;;;6.17;;
6725;SDS011;3400;48.506;11.692;2023-06-26T03:10:38;7.23;;;6.53;;
6725;SDS011;3400;48.506;11.692;2023-06-26T03:13:06;7.50;;;6.63;;
6725;SDS011;3400;48.506;11.692;2023-06-26T03:15:34;8.43;;;7.50;;
6725;SDS011;3400;48.506;11.692;2023-06-26T03:18:02;7.87;;;6.97;;
6725;SDS011;3400;48.506;11.692;2023-06-26T03:20:29;7.97;;;6.80;;
6725;SDS011;3400;48.506;11.692;2023-06-26T03:22:59;7.17;;;6.47;;
6725;SDS011;3400;48.506;11.692;2023-06-26T03:25:27;7.37;;;6.60;;
6725;SDS011;3400;48.506;11.692;2023-06-26T03:28:05;7.00;;;6.30;;
6725;SDS011;3400;48.506;11.692;2023-06-26T03:30:35;6.47;;;5.83;;
6725;SDS011;3400;48.506;11.692;2023-06-26T03:33:02;7.73;;;6.20;;
6725;SDS011;3400;48.506;11.692;2023-06-26T03:35:30;7.50;;;6.43;;
6725;SDS011;3400;48.506;11.692;2023-06-26T03:38:00;8.20;;;6.60;;
6725;SDS011;3400;48.506;11.692;2023-06-26T03:40:28;6.67;;;6.00;;
6725;SDS011;3400;48.506;11.692;2023-06-26T03:42:56;7.27;;;6.20;;
6725;SDS011;3400;48.506;11.692;2023-06-26T03:45:24;7.30;;;6.40;;
6725;SDS011;3400;48.506;11.692;2023-06-26T03:47:52;7.70;;;6.90;;
6725;SDS011;3400;48.506;11.692;2023-06-26T03:50:19;9.53;;;7.07;;
6725;SDS011;3400;48.506;11.692;2023-06-26T03:52:47;8.80;;;7.90;;
6725;SDS011;3400;48.506;11.692;2023-06-26T03:55:17;8.57;;;6.73;;
6725;SDS011;3400;48.506;11.692;2023-06-26T03:57:45;7.80;;;7.00;;
6725;SDS011;3400;48.506;11.692;2023-06-26T04:00:13;8.93;;;8.03;;
6725;SDS011;3400;48.506;11.692;2023-06-26T04:02:41;8.97;;;7.50;;
6725;SDS011;3400;48.506;11.692;2023-06-26T04:05:10;8.13;;;7.33;;
6725;SDS011;3400;48.506;11.692;2023-06-26T04:07:38;8.10;;;7.30;;
6725;SDS011;3400;48.506;11.692;2023-06-26T04:10:07;8.37;;;7.57;;
6725;SDS011;3400;48.506;11.692;2023-06-26T04:12:36;8.47;;;7.20;;
6725;SDS011;3400;48.506;11.692;2023-06-26T04:15:04;8.23;;;7.43;;
6725;SDS011;3400;48.506;11.692;2023-06-26T04:17:32;7.90;;;7.10;;
6725;SDS011;3400;48.506;11.692;2023-06-26T04:19:59;9.50;;;8.00;;
6725;SDS011;3400;48.506;11.692;2023-06-26T04:22:27;11.00;;;8.13;;
6725;SDS011;3400;48.506;11.692;2023-06-26T04:24:55;9.50;;;8.07;;
6725;SDS011;3400;48.506;11.692;2023-06-26T04:27:23;8.80;;;7.90;;
6725;SDS011;3400;48.506;11.692;2023-06-26T04:29:52;9.53;;;7.70;;
6725;SDS011;3400;48.506;11.692;2023-06-26T04:32:20;10.90;;;8.00;;
6725;SDS011;3400;48.506;11.692;2023-06-26T04:34:47;9.50;;;8.43;;
6725;SDS011;3400;48.506;11.692;2023-06-26T04:37:15;9.90;;;8.90;;
6725;SDS011;3400;48.506;11.692;2023-06-26T04:39:43;9.83;;;8.83;;
6725;SDS011;3400;48.506;11.692;2023-06-26T04:42:10;10.23;;;9.20;;
6725;SDS011;3400;48.506;11.692;2023-06-26T04:44:38;9.57;;;8.53;;
6725;SDS011;3400;48.506;11.692;2023-06-26T04:47:08;11.63;;;9.13;;
6725;SDS011;3400;48.506;11.692;2023-06-26T04:49:35;9.17;;;8.33;;
6725;SDS011;3400;48.506;11.692;2023-06-26T04:52:03;10.83;;;9.70;;
6725;SDS011;3400;48.506;11.692;2023-06-26T04:54:31;11.57;;;8.87;;
6725;SDS011;3400;48.506;11.692;2023-06-26T04:56:59;9.93;;;9.03;;
6725;SDS011;3400;48.506;11.692;2023-06-26T04:59:26;12.23;;;8.47;;
6725;SDS011;3400;48.506;11.692;2023-06-26T05:01:54;10.30;;;9.20;;
6725;SDS011;3400;48.506;11.692;2023-06-26T05:04:23;9.80;;;8.80;;
6725;SDS011;3400;48.506;11.692;2023-06-26T05:06:51;9.97;;;8.97;;
6725;SDS011;3400;48.506;11.692;2023-06-26T05:09:19;9.70;;;8.70;;
6725;SDS011;3400;48.506;11.692;2023-06-26T05:11:46;11.20;;;8.20;;
6725;SDS011;3400;48.506;11.692;2023-06-26T05:14:14;9.00;;;7.93;;
6725;SDS011;3400;48.506;11.692;2023-06-26T05:16:42;8.83;;;7.77;;
6725;SDS011;3400;48.506;11.692;2023-06-26T05:19:09;8.87;;;7.97;;
6725;SDS011;3400;48.506;11.692;2023-06-26T05:21:38;8.80;;;7.77;;
6725;SDS011;3400;48.506;11.692;2023-06-26T05:24:06;8.00;;;7.17;;
6725;SDS011;3400;48.506;11.692;2023-06-26T05:26:35;8.73;;;7.83;;
6725;SDS011;3400;48.506;11.692;2023-06-26T05:29:03;9.30;;;7.70;;
6725;SDS011;3400;48.506;11.692;2023-06-26T05:31:31;8.67;;;7.77;;
6725;SDS011;3400;48.506;11.692;2023-06-26T05:34:01;9.33;;;8.27;;
6725;SDS011;3400;48.506;11.692;2023-06-26T05:36:30;9.20;;;8.07;;
6725;SDS011;3400;48.506;11.692;2023-06-26T05:39:00;8.80;;;7.67;;
6725;SDS011;3400;48.506;11.692;2023-06-26T05:41:29;9.67;;;8.40;;
6725;SDS011;3400;48.506;11.692;2023-06-26T05:43:57;9.80;;;8.27;;
6725;SDS011;3400;48.506;11.692;2023-06-26T05:46:24;14.60;;;8.07;;
6725;SDS011;3400;48.506;11.692;2023-06-26T05:48:52;7.83;;;7.13;;
6725;SDS011;3400;48.506;11.692;2023-06-26T05:51:20;8.70;;;7.80;;
6725;SDS011;3400;48.506;11.692;2023-06-26T05:53:48;10.83;;;7.70;;
6725;SDS011;3400;48.506;11.692;2023-06-26T05:56:18;8.63;;;7.83;;
6725;SDS011;3400;48.506;11.692;2023-06-26T05:58:45;9.27;;;7.57;;
6725;SDS011;3400;48.506;11.692;2023-06-26T06:01:13;9.27;;;8.27;;
6725;SDS011;3400;48.506;11.692;2023-06-26T06:03:41;9.17;;;8.20;;
6725;SDS011;3400;48.506;11.692;2023-06-26T06:06:09;8.80;;;7.53;;
6725;SDS011;3400;48.506;11.692;2023-06-26T06:08:36;8.37;;;7.47;;
6725;SDS011;3400;48.506;11.692;2023-06-26T06:11:04;7.87;;;7.03;;
6725;SDS011;3400;48.506;11.692;2023-06-26T06:13:33;8.03;;;7.13;;
6725;SDS011;3400;48.506;11.692;2023-06-26T06:16:01;8.10;;;7.10;;
6725;SDS011;3400;48.506;11.692;2023-06-26T06:18:29;8.30;;;7.50;;
6725;SDS011;3400;48.506;11.692;2023-06-26T06:20:56;11.20;;;8.27;;
6725;SDS011;3400;48.506;11.692;2023-06-26T06:23:24;8.30;;;7.57;;
6725;SDS011;3400;48.506;11.692;2023-06-26T06:25:52;9.57;;;7.47;;
6725;SDS011;3400;48.506;11.692;2023-06-26T06:28:19;8.27;;;7.47;;
6725;SDS011;3400;48.506;11.692;2023-06-26T06:30:48;8.23;;;7.27;;
6725;SDS011;3400;48.506;11.692;2023-06-26T06:33:16;9.53;;;7.73;;
6725;SDS011;3400;48.506;11.692;2023-06-26T06:35:44;10.03;;;7.40;;
6725;SDS011;3400;48.506;11.692;2023-06-26T06:38:11;7.97;;;7.17;;
6725;SDS011;3400;48.506;11.692;2023-06-26T06:40:39;9.27;;;7.17;;
6725;SDS011;3400;48.506;11.692;2023-06-26T06:43:07;9.17;;;8.27;;
6725;SDS011;3400;48.506;11.692;2023-06-26T06:45:35;8.23;;;7.43;;
6725;SDS011;3400;48.506;11.692;2023-06-26T06:48:05;8.37;;;7.57;;
6725;SDS011;3400;48.506;11.692;2023-06-26T06:50:32;9.30;;;7.57;;
6725;SDS011;3400;48.506;11.692;2023-06-26T06:53:00;8.07;;;7.10;;
6725;SDS011;3400;48.506;11.692;2023-06-26T06:55:28;9.10;;;8.20;;
6725;SDS011;3400;48.506;11.692;2023-06-26T06:57:56;8.13;;;7.20;;
6725;SDS011;3400;48.506;11.692;2023-06-26T07:00:23;11.30;;;7.80;;
6725;SDS011;3400;48.506;11.692;2023-06-26T07:02:53;8.17;;;7.37;;
6725;SDS011;3400;48.506;11.692;2023-06-26T07:05:23;8.60;;;7.03;;
6725;SDS011;3400;48.506;11.692;2023-06-26T07:07:51;8.57;;;7.67;;
6725;SDS011;3400;48.506;11.692;2023-06-26T07:10:19;10.37;;;7.60;;
6725;SDS011;3400;48.506;11.692;2023-06-26T07:12:46;8.47;;;7.67;;
6725;SDS011;3400;48.506;11.692;2023-06-26T07:15:14;9.73;;;7.50;;
6725;SDS011;3400;48.506;11.692;2023-06-26T07:17:42;8.37;;;7.57;;
6725;SDS011;3400;48.506;11.692;2023-06-26T07:20:10;9.10;;;8.30;;
6725;SDS011;3400;48.506;11.692;2023-06-26T07:22:42;7.97;;;6.87;;
6725;SDS011;3400;48.506;11.692;2023-06-26T07:25:10;9.03;;;8.13;;
6725;SDS011;3400;48.506;11.692;2023-06-26T07:27:38;8.97;;;7.00;;
6725;SDS011;3400;48.506;11.692;2023-06-26T07:30:07;8.70;;;7.13;;
6725;SDS011;3400;48.506;11.692;2023-06-26T07:32:35;8.13;;;7.30;;
6725;SDS011;3400;48.506;11.692;2023-06-26T07:35:03;8.57;;;7.77;;
6725;SDS011;3400;48.506;11.692;2023-06-26T07:37:31;8.77;;;7.87;;
6725;SDS011;3400;48.506;11.692;2023-06-26T07:40:00;8.23;;;7.47;;
6725;SDS011;3400;48.506;11.692;2023-06-26T07:42:28;8.57;;;7.70;;
6725;SDS011;3400;48.506;11.692;2023-06-26T07:44:55;8.63;;;7.17;;
6725;SDS011;3400;48.506;11.692;2023-06-26T07:47:23;8.17;;;7.23;;
6725;SDS011;3400;48.506;11.692;2023-06-26T07:49:51;9.53;;;7.63;;
6725;SDS011;3400;48.506;11.692;2023-06-26T07:52:19;7.50;;;6.80;;
6725;SDS011;3400;48.506;11.692;2023-06-26T07:54:46;8.97;;;8.17;;
6725;SDS011;3400;48.506;11.692;2023-06-26T07:57:15;8.50;;;7.50;;
6725;SDS011;3400;48.506;11.692;2023-06-26T07:59:43;10.10;;;7.23;;
6725;SDS011;3400;48.506;11.692;2023-06-26T08:02:11;8.20;;;7.40;;
6725;SDS011;3400;48.506;11.692;2023-06-26T08:04:38;8.07;;;7.27;;
6725;SDS011;3400;48.506;11.692;2023-06-26T08:07:06;7.93;;;7.23;;
6725;SDS011;3400;48.506;11.692;2023-06-26T08:09:34;7.87;;;7.07;;
6725;SDS011;3400;48.506;11.692;2023-06-26T08:12:01;8.40;;;7.70;;
6725;SDS011;3400;48.506;11.692;2023-06-26T08:14:30;8.20;;;7.10;;
6725;SDS011;3400;48.506;11.692;2023-06-26T08:16:58;7.97;;;7.27;;
6725;SDS011;3400;48.506;11.692;2023-06-26T08:19:26;8.13;;;7.33;;
6725;SDS011;3400;48.506;11.692;2023-06-26T08:21:54;7.27;;;6.60;;
6725;SDS011;3400;48.506;11.692;2023-06-26T08:24:21;7.77;;;7.07;;
6725;SDS011;3400;48.506;11.692;2023-06-26T08:26:49;10.13;;;6.70;;
6725;SDS011;3400;48.506;11.692;2023-06-26T08:29:17;7.30;;;6.60;;
6725;SDS011;3400;48.506;11.692;2023-06-26T08:31:46;9.17;;;7.07;;
6725;SDS011;3400;48.506;11.692;2023-06-26T08:34:13;9.33;;;6.97;;
6725;SDS011;3400;48.506;11.692;2023-06-26T08:36:41;11.03;;;7.27;;
6725;SDS011;3400;48.506;11.692;2023-06-26T08:39:09;8.77;;;7.23;;
6725;SDS011;3400;48.506;11.692;2023-06-26T08:41:37;8.13;;;7.30;;
6725;SDS011;3400;48.506;11.692;2023-06-26T08:44:05;7.60;;;6.90;;
6725;SDS011;3400;48.506;11.692;2023-06-26T08:46:32;7.63;;;6.73;;
6725;SDS011;3400;48.506;11.692;2023-06-26T08:49:05;8.30;;;7.60;;
6725;SDS011;3400;48.506;11.692;2023-06-26T08:51:36;7.63;;;6.93;;
6725;SDS011;3400;48.506;11.692;2023-06-26T08:54:06;7.77;;;6.93;;
6725;SDS011;3400;48.506;11.692;2023-06-26T08:56:35;7.10;;;6.50;;
6725;SDS011;3400;48.506;11.692;2023-06-26T08:59:03;7.27;;;6.60;;
6725;SDS011;3400;48.506;11.692;2023-06-26T09:01:31;7.47;;;6.57;;
6725;SDS011;3400;48.506;11.692;2023-06-26T09:03:59;7.37;;;6.67;;
6725;SDS011;3400;48.506;11.692;2023-06-26T09:06:28;6.97;;;6.28;;
6725;SDS011;3400;48.506;11.692;2023-06-26T09:08:56;14.35;;;6.50;;
6725;SDS011;3400;48.506;11.692;2023-06-26T09:11:23;7.22;;;6.53;;
6725;SDS011;3400;48.506;11.692;2023-06-26T09:13:51;7.32;;;6.63;;
6725;SDS011;3400;48.506;11.692;2023-06-26T09:16:23;6.25;;;5.68;;
6725;SDS011;3400;48.506;11.692;2023-06-26T09:18:52;7.22;;;6.63;;
6725;SDS011;3400;48.506;11.692;2023-06-26T09:21:20;8.43;;;6.97;;
6725;SDS011;3400;48.506;11.692;2023-06-26T09:23:51;7.68;;;7.00;;
6725;SDS011;3400;48.506;11.692;2023-06-26T09:26:21;8.98;;;6.75;;
6725;SDS011;3400;48.506;11.692;2023-06-26T09:28:48;8.50;;;7.70;;
6725;SDS011;3400;48.506;11.692;2023-06-26T09:31:16;7.72;;;6.75;;
6725;SDS011;3400;48.506;11.692;2023-06-26T09:33:46;7.00;;;6.40;;
6725;SDS011;3400;48.506;11.692;2023-06-26T09:36:18;6.72;;;6.03;;
6725;SDS011;3400;48.506;11.692;2023-06-26T09:38:47;6.95;;;6.25;;
6725;SDS011;3400;48.506;11.692;2023-06-26T09:41:16;6.80;;;6.20;;
6725;SDS011;3400;48.506;11.692;2023-06-26T09:43:47;6.13;;;5.65;;
6725;SDS011;3400;48.506;11.692;2023-06-26T09:46:15;8.07;;;5.60;;
6725;SDS011;3400;48.506;11.692;2023-06-26T09:48:44;6.55;;;5.90;;
6725;SDS011;3400;48.506;11.692;2023-06-26T09:51:11;6.55;;;6.05;;
6725;SDS011;3400;48.506;11.692;2023-06-26T09:53:39;6.68;;;6.07;;
6725;SDS011;3400;48.506;11.692;2023-06-26T09:56:14;6.30;;;5.60;;
6725;SDS011;3400;48.506;11.692;2023-06-26T09:58:44;6.13;;;5.53;;
6725;SDS011;3400;48.506;11.692;2023-06-26T10:01:12;5.75;;;5.28;;
6725;SDS011;3400;48.506;11.692;2023-06-26T10:03:40;6.22;;;5.72;;
6725;SDS011;3400;48.506;11.692;2023-06-26T10:06:08;6.45;;;5.53;;
6725;SDS011;3400;48.506;11.692;2023-06-26T10:08:36;9.60;;;5.45;;
6725;SDS011;3400;48.506;11.692;2023-06-26T10:11:05;6.88;;;5.35;;
6725;SDS011;3400;48.506;11.692;2023-06-26T10:13:34;5.05;;;4.65;;
6725;SDS011;3400;48.506;11.692;2023-06-26T10:16:05;5.63;;;5.05;;
6725;SDS011;3400;48.506;11.692;2023-06-26T10:18:34;4.70;;;4.30;;
6725;SDS011;3400;48.506;11.692;2023-06-26T10:21:03;5.00;;;4.60;;
6725;SDS011;3400;48.506;11.692;2023-06-26T10:23:32;5.80;;;4.95;;
6725;SDS011;3400;48.506;11.692;2023-06-26T10:26:00;4.88;;;4.47;;
6725;SDS011;3400;48.506;11.692;2023-06-26T10:28:28;6.50;;;4.47;;
6725;SDS011;3400;48.506;11.692;2023-06-26T10:30:57;5.00;;;4.60;;
6725;SDS011;3400;48.506;11.692;2023-06-26T10:33:27;5.03;;;4.35;;
6725;SDS011;3400;48.506;11.692;2023-06-26T10:36:02;5.22;;;4.72;;
6725;SDS011;3400;48.506;11.692;2023-06-26T10:38:48;5.72;;;4.57;;
6725;SDS011;3400;48.506;11.692;2023-06-26T10:41:19;5.28;;;4.88;;
6725;SDS011;3400;48.506;11.692;2023-06-26T10:43:48;6.80;;;4.50;;
6725;SDS011;3400;48.506;11.692;2023-06-26T10:46:17;5.40;;;4.78;;
6725;SDS011;3400;48.506;11.692;2023-06-26T10:48:59;5.55;;;4.95;;
6725;SDS011;3400;48.506;11.692;2023-06-26T10:51:27;5.25;;;4.82;;
6725;SDS011;3400;48.506;11.692;2023-06-26T10:53:55;5.38;;;4.88;;
6725;SDS011;3400;48.506;11.692;2023-06-26T10:56:42;5.85;;;5.00;;
6725;SDS011;3400;48.506;11.692;2023-06-26T10:59:16;5.40;;;4.90;;
6725;SDS011;3400;48.506;11.692;2023-06-26T11:01:44;5.63;;;5.07;;
6725;SDS011;3400;48.506;11.692;2023-06-26T11:04:14;5.93;;;5.30;;
6725;SDS011;3400;48.506;11.692;2023-06-26T11:06:44;4.97;;;4.50;;
6725;SDS011;3400;48.506;11.692;2023-06-26T11:09:14;6.40;;;4.80;;
6725;SDS011;3400;48.506;11.692;2023-06-26T11:11:57;4.95;;;4.65;;
6725;SDS011;3400;48.506;11.692;2023-06-26T11:14:30;5.88;;;5.10;;
6725;SDS011;3400;48.506;11.692;2023-06-26T11:16:59;8.60;;;5.05;;
6725;SDS011;3400;48.506;11.692;2023-06-26T11:19:30;4.95;;;4.55;;
6725;SDS011;3400;48.506;11.692;2023-06-26T11:22:04;6.47;;;5.05;;
6725;SDS011;3400;48.506;11.692;2023-06-26T11:24:32;6.18;;;4.97;;
6725;SDS011;3400;48.506;11.692;2023-06-26T11:27:01;5.72;;;4.68;;
6725;SDS011;3400;48.506;11.692;2023-06-26T11:29:29;6.65;;;4.65;;
6725;SDS011;3400;48.506;11.692;2023-06-26T11:32:04;4.95;;;4.55;;
6725;SDS011;3400;48.506;11.692;2023-06-26T11:34:33;4.90;;;4.50;;
6725;SDS011;3400;48.506;11.692;2023-06-26T11:37:03;5.43;;;5.03;;
6725;SDS011;3400;48.506;11.692;2023-06-26T11:39:32;5.30;;;4.80;;
6725;SDS011;3400;48.506;11.692;2023-06-26T11:42:00;11.00;;;5.10;;
6725;SDS011;3400;48.506;11.692;2023-06-26T11:44:31;5.85;;;4.65;;
6725;SDS011;3400;48.506;11.692;2023-06-26T11:46:58;4.88;;;4.47;;
6725;SDS011;3400;48.506;11.692;2023-06-26T11:49:26;4.60;;;4.30;;
6725;SDS011;3400;48.506;11.692;2023-06-26T11:51:56;5.50;;;4.85;;
6725;SDS011;3400;48.506;11.692;2023-06-26T11:54:25;4.78;;;4.38;;
6725;SDS011;3400;48.506;11.692;2023-06-26T11:56:53;5.20;;;4.80;;
6725;SDS011;3400;48.506;11.692;2023-06-26T11:59:22;5.47;;;4.63;;
6725;SDS011;3400;48.506;11.692;2023-06-26T12:01:51;5.22;;;4.82;;
6725;SDS011;3400;48.506;11.692;2023-06-26T12:04:19;4.78;;;4.20;;
6725;SDS011;3400;48.506;11.692;2023-06-26T12:06:48;5.07;;;4.57;;
6725;SDS011;3400;48.506;11.692;2023-06-26T12:09:18;6.45;;;5.20;;
6725;SDS011;3400;48.506;11.692;2023-06-26T12:11:46;5.63;;;4.88;;
6725;SDS011;3400;48.506;11.692;2023-06-26T12:14:15;4.95;;;4.55;;
6725;SDS011;3400;48.506;11.692;2023-06-26T12:16:43;5.18;;;4.65;;
6725;SDS011;3400;48.506;11.692;2023-06-26T12:19:10;5.35;;;4.88;;
6725;SDS011;3400;48.506;11.692;2023-06-26T12:21:48;4.75;;;4.43;;
6725;SDS011;3400;48.506;11.692;2023-06-26T12:24:19;5.07;;;4.68;;
6725;SDS011;3400;48.506;11.692;2023-06-26T12:26:49;5.30;;;4.63;;
6725;SDS011;3400;48.506;11.692;2023-06-26T12:29:19;5.38;;;4.97;;
6725;SDS011;3400;48.506;11.692;2023-06-26T12:31:49;4.75;;;4.35;;
6725;SDS011;3400;48.506;11.692;2023-06-26T12:34:18;5.95;;;5.03;;
6725;SDS011;3400;48.506;11.692;2023-06-26T12:36:47;6.95;;;4.90;;
6725;SDS011;3400;48.506;11.692;2023-06-26T12:39:15;15.43;;;5.13;;
6725;SDS011;3400;48.506;11.692;2023-06-26T12:41:52;5.93;;;5.32;;
6725;SDS011;3400;48.506;11.692;2023-06-26T12:44:20;5.90;;;5.30;;
6725;SDS011;3400;48.506;11.692;2023-06-26T12:46:48;5.25;;;4.85;;
6725;SDS011;3400;48.506;11.692;2023-06-26T12:49:16;6.88;;;4.75;;
6725;SDS011;3400;48.506;11.692;2023-06-26T12:51:45;6.88;;;5.70;;
6725;SDS011;3400;48.506;11.692;2023-06-26T12:54:13;9.98;;;4.88;;
6725;SDS011;3400;48.506;11.692;2023-06-26T12:56:40;5.53;;;5.03;;
6725;SDS011;3400;48.506;11.692;2023-06-26T12:59:09;5.97;;;5.47;;
6725;SDS011;3400;48.506;11.692;2023-06-26T13:01:37;5.43;;;4.95;;
6725;SDS011;3400;48.506;11.692;2023-06-26T13:04:05;5.70;;;5.00;;
6725;SDS011;3400;48.506;11.692;2023-06-26T13:06:33;5.20;;;4.80;;
6725;SDS011;3400;48.506;11.692;2023-06-26T13:09:01;5.03;;;4.53;;
6725;SDS011;3400;48.506;11.692;2023-06-26T13:11:30;6.05;;;5.43;;
6725;SDS011;3400;48.506;11.692;2023-06-26T13:13:58;5.93;;;5.30;;
6725;SDS011;3400;48.506;11.692;2023-06-26T13:16:27;7.03;;;5.00;;
6725;SDS011;3400;48.506;11.692;2023-06-26T13:18:54;5.88;;;5.30;;
6725;SDS011;3400;48.506;11.692;2023-06-26T13:21:22;6.05;;;5.55;;
6725;SDS011;3400;48.506;11.692;2023-06-26T13:23:50;7.55;;;5.68;;
6725;SDS011;3400;48.506;11.692;2023-06-26T13:26:18;5.53;;;5.03;;
6725;SDS011;3400;48.506;11.692;2023-06-26T13:28:47;5.68;;;5.18;;
6725;SDS011;3400;48.506;11.692;2023-06-26T13:31:15;4.80;;;4.35;;
6725;SDS011;3400;48.506;11.692;2023-06-26T13:33:44;5.57;;;5.05;;
6725;SDS011;3400;48.506;11.692;2023-06-26T13:36:14;5.40;;;4.50;;
6725;SDS011;3400;48.506;11.692;2023-06-26T13:38:42;6.20;;;4.90;;
6725;SDS011;3400;48.506;11.692;2023-06-26T13:41:09;5.13;;;4.43;;
6725;SDS011;3400;48.506;11.692;2023-06-26T13:43:37;6.47;;;4.70;;
6725;SDS011;3400;48.506;11.692;2023-06-26T13:46:05;5.25;;;4.68;;
6725;SDS011;3400;48.506;11.692;2023-06-26T13:48:33;5.25;;;4.75;;
6725;SDS011;3400;48.506;11.692;2023-06-26T13:51:02;5.35;;;4.97;;
6725;SDS011;3400;48.506;11.692;2023-06-26T13:53:30;6.53;;;4.63;;
6725;SDS011;3400;48.506;11.692;2023-06-26T13:55:57;41.85;;;7.50;;
6725;SDS011;3400;48.506;11.692;2023-06-26T13:58:25;20.17;;;7.03;;
6725;SDS011;3400;48.506;11.692;2023-06-26T14:00:55;5.35;;;4.85;;
6725;SDS011;3400;48.506;11.692;2023-06-26T14:03:23;4.93;;;4.13;;
6725;SDS011;3400;48.506;11.692;2023-06-26T14:05:51;5.30;;;4.80;;
6725;SDS011;3400;48.506;11.692;2023-06-26T14:08:20;4.90;;;4.50;;
6725;SDS011;3400;48.506;11.692;2023-06-26T14:10:48;5.72;;;5.15;;
6725;SDS011;3400;48.506;11.692;2023-06-26T14:13:15;6.43;;;5.03;;
6725;SDS011;3400;48.506;11.692;2023-06-26T14:15:43;5.90;;;5.07;;
6725;SDS011;3400;48.506;11.692;2023-06-26T14:18:11;7.32;;;4.80;;
6725;SDS011;3400;48.506;11.692;2023-06-26T14:20:39;8.05;;;5.47;;
6725;SDS011;3400;48.506;11.692;2023-06-26T14:23:07;5.50;;;5.00;;
6725;SDS011;3400;48.506;11.692;2023-06-26T14:25:37;5.38;;;4.88;;
6725;SDS011;3400;48.506;11.692;2023-06-26T14:28:05;5.93;;;5.20;;
6725;SDS011;3400;48.506;11.692;2023-06-26T14:30:33;4.95;;;4.55;;
6725;SDS011;3400;48.506;11.692;2023-06-26T14:33:01;6.32;;;4.78;;
6725;SDS011;3400;48.506;11.692;2023-06-26T14:35:29;5.50;;;5.00;;
6725;SDS011;3400;48.506;11.692;2023-06-26T14:37:56;4.88;;;4.47;;
6725;SDS011;3400;48.506;11.692;2023-06-26T14:40:24;4.60;;;4.30;;
6725;SDS011;3400;48.506;11.692;2023-06-26T14:42:53;9.85;;;5.25;;
6725;SDS011;3400;48.506;11.692;2023-06-26T14:45:21;6.95;;;4.80;;
6725;SDS011;3400;48.506;11.692;2023-06-26T14:47:50;5.85;;;4.97;;
6725;SDS011;3400;48.506;11.692;2023-06-26T14:50:17;5.10;;;4.63;;
6725;SDS011;3400;48.506;11.692;2023-06-26T14:52:45;5.93;;;5.43;;
6725;SDS011;3400;48.506;11.692;2023-06-26T14:55:13;23.63;;;7.30;;
6725;SDS011;3400;48.506;11.692;2023-06-26T14:57:41;5.40;;;4.82;;
6725;SDS011;3400;48.506;11.692;2023-06-26T15:00:12;7.97;;;4.68;;
6725;SDS011;3400;48.506;11.692;2023-06-26T15:02:40;5.40;;;5.00;;
6725;SDS011;3400;48.506;11.692;2023-06-26T15:05:08;5.13;;;4.60;;
6725;SDS011;3400;48.506;11.692;2023-06-26T15:07:36;4.60;;;4.30;;
6725;SDS011;3400;48.506;11.692;2023-06-26T15:10:04;5.15;;;4.60;;